createdAt,value
2022-10-17T00:02:11.165Z,15.71
2022-10-17T00:04:37.641Z,15.71
2022-10-17T00:07:03.994Z,15.71
2022-10-17T00:09:30.469Z,15.61
2022-10-17T00:11:57.000Z,15.63
2022-10-17T00:14:23.404Z,15.62
2022-10-17T00:16:52.762Z,15.64
2022-10-17T00:19:19.225Z,15.61
2022-10-17T00:21:45.729Z,15.59
2022-10-17T00:24:12.256Z,15.56
2022-10-17T00:26:38.628Z,15.57
2022-10-17T00:29:05.538Z,15.60
2022-10-17T00:31:32.665Z,15.56
2022-10-17T00:33:59.241Z,15.56
2022-10-17T00:36:26.184Z,15.55
2022-10-17T00:38:54.375Z,15.53
2022-10-17T00:41:22.334Z,15.54
2022-10-17T00:43:55.033Z,15.50
2022-10-17T00:46:22.631Z,15.45
2022-10-17T00:48:50.902Z,15.49
2022-10-17T00:51:20.040Z,15.47
2022-10-17T00:53:46.653Z,15.46
2022-10-17T00:56:13.208Z,15.44
2022-10-17T00:58:39.746Z,15.45
2022-10-17T01:01:06.265Z,15.47
2022-10-17T01:03:32.678Z,15.46
2022-10-17T01:05:59.683Z,15.45
2022-10-17T01:08:26.148Z,15.46
2022-10-17T01:11:16.181Z,15.45
2022-10-17T01:13:46.762Z,15.45
2022-10-17T01:16:34.589Z,15.47
2022-10-17T01:19:29.688Z,15.45
2022-10-17T01:21:56.223Z,15.44
2022-10-17T01:24:47.030Z,15.42
2022-10-17T01:27:26.087Z,15.44
2022-10-17T01:30:04.772Z,15.47
2022-10-17T01:32:46.217Z,15.46
2022-10-17T01:35:25.850Z,15.48
2022-10-17T01:37:55.296Z,15.48
2022-10-17T01:40:21.897Z,15.44
2022-10-17T01:42:48.173Z,15.44
2022-10-17T01:45:18.345Z,15.44
2022-10-17T01:47:46.949Z,15.43
2022-10-17T01:50:16.637Z,15.42
2022-10-17T01:52:46.741Z,15.39
2022-10-17T01:55:18.645Z,15.42
2022-10-17T01:57:47.921Z,15.40
2022-10-17T02:00:15.679Z,15.41
2022-10-17T02:02:43.538Z,15.43
2022-10-17T02:05:09.937Z,15.44
2022-10-17T02:07:36.229Z,15.44
2022-10-17T02:10:06.712Z,15.43
2022-10-17T02:12:51.744Z,15.45
2022-10-17T02:15:33.759Z,15.49
2022-10-17T02:18:02.833Z,15.49
2022-10-17T02:20:51.683Z,15.45
2022-10-17T02:23:33.639Z,15.49
2022-10-17T02:26:19.247Z,15.49
2022-10-17T02:29:04.411Z,15.47
2022-10-17T02:31:37.124Z,15.47
2022-10-17T02:34:09.237Z,15.48
2022-10-17T02:36:41.806Z,15.47
2022-10-17T02:39:09.582Z,15.45
2022-10-17T02:41:36.356Z,15.45
2022-10-17T02:44:03.594Z,15.46
2022-10-17T02:49:03.199Z,15.47
2022-10-17T02:51:33.294Z,15.46
2022-10-17T02:54:18.200Z,15.46
2022-10-17T02:56:53.601Z,15.49
2022-10-17T02:59:21.582Z,15.51
2022-10-17T03:01:49.190Z,15.50
2022-10-17T03:04:15.501Z,15.52
2022-10-17T03:06:42.059Z,15.52
2022-10-17T03:09:09.384Z,15.51
2022-10-17T03:11:35.707Z,15.51
2022-10-17T03:14:01.996Z,15.50
2022-10-17T03:16:28.378Z,15.50
2022-10-17T03:18:54.750Z,15.46
2022-10-17T03:21:21.059Z,15.46
2022-10-17T03:23:47.451Z,15.18
2022-10-17T03:26:13.854Z,15.13
2022-10-17T03:28:40.227Z,15.06
2022-10-17T03:31:07.798Z,15.03
2022-10-17T03:33:34.104Z,15.04
2022-10-17T03:36:04.583Z,15.04
2022-10-17T03:38:30.890Z,15.07
2022-10-17T03:40:57.186Z,15.07
2022-10-17T03:43:23.464Z,15.08
2022-10-17T03:45:49.799Z,15.03
2022-10-17T03:48:16.102Z,15.04
2022-10-17T03:50:42.472Z,15.07
2022-10-17T03:53:08.808Z,15.03
2022-10-17T03:55:35.260Z,15.27
2022-10-17T03:58:01.556Z,15.37
2022-10-17T04:00:27.874Z,15.42
2022-10-17T04:02:54.223Z,15.41
2022-10-17T04:05:20.565Z,15.47
2022-10-17T04:07:46.920Z,15.51
2022-10-17T04:10:13.225Z,15.52
2022-10-17T04:12:40.037Z,15.56
2022-10-17T04:15:06.804Z,15.52
2022-10-17T04:17:37.260Z,15.58
2022-10-17T04:20:04.880Z,15.62
2022-10-17T04:22:31.382Z,15.69
2022-10-17T04:24:57.834Z,15.68
2022-10-17T04:27:24.184Z,15.66
2022-10-17T04:29:50.546Z,15.68
2022-10-17T04:32:17.154Z,15.69
2022-10-17T04:34:43.497Z,15.75
2022-10-17T04:37:09.794Z,15.77
2022-10-17T04:39:36.109Z,15.79
2022-10-17T04:42:02.410Z,15.80
2022-10-17T04:44:30.856Z,15.84
2022-10-17T04:46:57.134Z,15.88
2022-10-17T04:49:23.408Z,15.91
2022-10-17T04:51:50.949Z,15.92
2022-10-17T04:54:17.238Z,16.03
2022-10-17T04:56:43.543Z,16.05
2022-10-17T04:59:09.846Z,15.82
2022-10-17T05:01:36.113Z,15.89
2022-10-17T05:04:02.554Z,15.83
2022-10-17T05:06:28.958Z,16.06
2022-10-17T05:08:55.449Z,16.17
2022-10-17T05:11:28.375Z,16.23
2022-10-17T05:13:59.047Z,16.26
2022-10-17T05:16:26.025Z,16.29
2022-10-17T05:18:53.881Z,16.27
2022-10-17T05:21:20.796Z,16.27
2022-10-17T05:23:47.434Z,16.29
2022-10-17T05:26:13.762Z,16.31
2022-10-17T05:28:40.171Z,16.34
2022-10-17T05:31:07.287Z,16.37
2022-10-17T05:33:33.969Z,16.37
2022-10-17T05:36:00.269Z,16.38
2022-10-17T05:38:26.748Z,16.37
2022-10-17T05:40:57.060Z,16.41
2022-10-17T05:43:23.449Z,16.45
2022-10-17T05:45:49.752Z,16.44
2022-10-17T05:48:16.220Z,16.40
2022-10-17T05:50:42.527Z,16.42
2022-10-17T05:53:08.883Z,16.17
2022-10-17T05:55:35.185Z,16.37
2022-10-17T05:58:01.668Z,16.43
2022-10-17T06:00:28.133Z,16.42
2022-10-17T06:02:54.493Z,16.50
2022-10-17T06:05:21.116Z,16.47
2022-10-17T06:07:49.179Z,16.51
2022-10-17T06:10:17.139Z,16.53
2022-10-17T06:12:43.869Z,16.52
2022-10-17T06:15:10.819Z,16.53
2022-10-17T06:17:37.373Z,16.56
2022-10-17T06:20:03.923Z,16.63
2022-10-17T06:22:30.751Z,16.63
2022-10-17T06:24:57.465Z,16.62
2022-10-17T06:27:23.808Z,16.63
2022-10-17T06:29:51.188Z,16.67
2022-10-17T06:32:17.695Z,16.66
2022-10-17T06:34:43.985Z,16.65
2022-10-17T06:37:10.281Z,16.66
2022-10-17T06:39:36.581Z,16.65
2022-10-17T06:42:03.861Z,16.70
2022-10-17T06:44:31.457Z,16.68
2022-10-17T06:46:58.624Z,16.74
2022-10-17T06:49:25.069Z,16.73
2022-10-17T06:51:51.733Z,16.74
2022-10-17T06:54:18.046Z,16.78
2022-10-17T06:56:44.367Z,16.84
2022-10-17T06:59:10.729Z,16.85
2022-10-17T07:01:41.796Z,16.91
2022-10-17T07:04:11.755Z,16.97
2022-10-17T07:06:38.636Z,17.04
2022-10-17T07:09:06.759Z,16.98
2022-10-17T07:11:34.992Z,17.11
2022-10-17T07:14:01.609Z,17.18
2022-10-17T07:16:28.085Z,17.19
2022-10-17T07:18:54.722Z,17.29
2022-10-17T07:21:21.345Z,17.29
2022-10-17T07:23:47.662Z,17.33
2022-10-17T07:26:14.877Z,17.35
2022-10-17T07:28:42.540Z,17.40
2022-10-17T07:31:10.837Z,17.39
2022-10-17T07:33:37.194Z,17.40
2022-10-17T07:36:04.326Z,17.47
2022-10-17T07:38:31.097Z,17.45
2022-10-17T07:40:58.247Z,17.54
2022-10-17T07:43:25.154Z,17.55
2022-10-17T07:45:52.026Z,17.60
2022-10-17T07:48:18.763Z,17.65
2022-10-17T07:50:45.049Z,17.62
2022-10-17T07:53:11.417Z,17.70
2022-10-17T07:55:38.491Z,17.76
2022-10-17T07:58:04.827Z,17.79
2022-10-17T08:00:31.295Z,17.81
2022-10-17T08:02:57.660Z,17.84
2022-10-17T08:05:23.978Z,17.86
2022-10-17T08:07:50.428Z,17.87
2022-10-17T08:10:17.138Z,17.88
2022-10-17T08:12:43.536Z,17.90
2022-10-17T08:15:10.102Z,17.89
2022-10-17T08:17:37.603Z,17.92
2022-10-17T08:20:04.937Z,17.88
2022-10-17T08:22:32.166Z,17.95
2022-10-17T08:24:58.586Z,17.95
2022-10-17T08:27:25.463Z,17.96
2022-10-17T08:29:54.746Z,17.96
2022-10-17T08:32:22.239Z,18.04
2022-10-17T08:34:48.533Z,18.03
2022-10-17T08:37:15.169Z,18.09
2022-10-17T08:39:42.184Z,18.14
2022-10-17T08:42:08.465Z,18.10
2022-10-17T08:44:53.796Z,18.17
2022-10-17T08:47:25.989Z,18.18
2022-10-17T08:49:53.973Z,18.22
2022-10-17T08:52:35.443Z,18.24
2022-10-17T08:55:01.769Z,18.30
2022-10-17T08:57:29.339Z,18.36
2022-10-17T08:59:56.784Z,18.42
2022-10-17T09:02:41.820Z,18.47
2022-10-17T09:05:27.062Z,18.47
2022-10-17T09:07:59.813Z,18.54
2022-10-17T09:10:32.291Z,18.51
2022-10-17T09:13:17.534Z,18.53
2022-10-17T09:16:10.257Z,18.51
2022-10-17T09:18:44.244Z,18.55
2022-10-17T09:21:23.133Z,18.49
2022-10-17T09:23:59.687Z,18.48
2022-10-17T09:26:35.818Z,18.48
2022-10-17T09:29:02.238Z,18.49
2022-10-17T09:31:30.943Z,18.47
2022-10-17T09:34:00.996Z,18.47
2022-10-17T09:36:29.339Z,18.44
2022-10-17T09:39:00.542Z,18.44
2022-10-17T09:44:29.969Z,18.46
2022-10-17T09:47:05.365Z,18.48
2022-10-17T09:49:33.198Z,18.51
2022-10-17T09:52:00.845Z,18.54
2022-10-17T09:54:41.270Z,18.53
2022-10-17T09:57:08.802Z,18.50
2022-10-17T09:59:37.136Z,18.50
2022-10-17T10:02:12.617Z,18.50
2022-10-17T10:05:09.284Z,18.50
2022-10-17T10:07:37.725Z,18.48
2022-10-17T10:10:05.687Z,18.47
2022-10-17T10:12:33.808Z,18.45
2022-10-17T10:15:00.675Z,18.43
2022-10-17T10:17:35.905Z,18.39
2022-10-17T10:20:03.237Z,18.41
2022-10-17T10:22:29.751Z,18.39
2022-10-17T10:25:14.658Z,18.40
2022-10-17T10:27:42.091Z,18.41
2022-10-17T10:30:17.479Z,18.42
2022-10-17T10:32:45.526Z,18.44
2022-10-17T10:35:22.923Z,18.48
2022-10-17T10:37:54.067Z,18.50
2022-10-17T10:40:23.329Z,18.50
2022-10-17T10:42:51.186Z,18.51
2022-10-17T10:45:46.903Z,18.50
2022-10-17T10:48:21.610Z,18.47
2022-10-17T10:51:06.836Z,18.46
2022-10-17T10:53:57.290Z,18.46
2022-10-17T10:56:39.228Z,18.51
2022-10-17T10:59:29.304Z,18.52
2022-10-17T11:02:09.937Z,18.51
2022-10-17T11:04:46.122Z,18.51
2022-10-17T11:07:12.418Z,18.50
2022-10-17T11:09:54.500Z,18.48
2022-10-17T11:12:24.728Z,18.56
2022-10-17T11:14:51.120Z,18.60
2022-10-17T11:17:36.375Z,18.59
2022-10-17T11:20:10.341Z,18.64
2022-10-17T11:22:48.102Z,18.68
2022-10-17T11:25:34.792Z,18.73
2022-10-17T11:28:04.955Z,18.82
2022-10-17T11:30:39.673Z,18.89
2022-10-17T11:33:07.002Z,18.93
2022-10-17T11:35:36.518Z,18.96
2022-10-17T11:38:18.553Z,18.99
2022-10-17T11:40:48.808Z,18.99
2022-10-17T11:43:21.030Z,19.00
2022-10-17T11:45:50.123Z,19.03
2022-10-17T11:48:16.481Z,19.13
2022-10-17T11:53:40.669Z,19.26
2022-10-17T11:56:10.145Z,19.28
2022-10-17T11:58:43.447Z,19.28
2022-10-17T12:01:16.369Z,19.25
2022-10-17T12:03:46.774Z,19.24
2022-10-17T12:06:13.059Z,19.26
2022-10-17T12:08:59.650Z,19.28
2022-10-17T12:11:45.689Z,19.25
2022-10-17T12:14:31.078Z,19.22
2022-10-17T12:16:57.709Z,19.18
2022-10-17T12:19:25.437Z,19.17
2022-10-17T12:21:54.958Z,19.11
2022-10-17T12:24:35.920Z,19.08
2022-10-17T12:27:31.960Z,19.04
2022-10-17T12:29:59.854Z,19.07
2022-10-17T12:32:30.182Z,19.06
2022-10-17T12:34:59.683Z,19.07
2022-10-17T12:37:45.027Z,19.09
2022-10-17T12:40:30.153Z,19.12
2022-10-17T12:42:56.445Z,19.15
2022-10-17T12:45:41.486Z,19.17
2022-10-17T12:48:10.952Z,19.18
2022-10-17T12:50:58.337Z,19.17
2022-10-17T12:53:36.891Z,19.15
2022-10-17T12:56:03.502Z,19.14
2022-10-17T12:58:30.730Z,19.14
2022-10-17T13:01:22.547Z,19.12
2022-10-17T13:03:48.144Z,19.13
2022-10-17T13:06:21.078Z,19.12
2022-10-17T13:08:54.260Z,19.10
2022-10-17T13:11:23.363Z,19.11
2022-10-17T13:13:52.067Z,19.07
2022-10-17T13:16:35.053Z,19.06
2022-10-17T13:19:03.280Z,18.99
2022-10-17T13:21:29.602Z,18.82
2022-10-17T13:23:56.296Z,18.54
2022-10-17T13:26:27.898Z,18.33
2022-10-17T13:29:01.561Z,18.14
2022-10-17T13:31:30.770Z,18.04
2022-10-17T13:33:58.505Z,18.00
2022-10-17T13:36:25.550Z,17.93
2022-10-17T13:38:52.049Z,17.86
2022-10-17T13:41:35.392Z,17.86
2022-10-17T13:44:03.887Z,17.82
2022-10-17T13:46:37.985Z,17.76
2022-10-17T13:49:10.616Z,17.69
2022-10-17T13:51:37.811Z,17.67
2022-10-17T13:54:16.960Z,17.65
2022-10-17T13:56:43.313Z,17.64
2022-10-17T13:59:21.634Z,17.63
2022-10-17T14:01:49.795Z,17.65
2022-10-17T14:04:20.229Z,17.70
2022-10-17T14:06:49.673Z,17.73
2022-10-17T14:09:21.692Z,17.75
2022-10-17T14:11:56.952Z,17.78
2022-10-17T14:14:26.033Z,17.83
2022-10-17T14:16:52.630Z,17.87
2022-10-17T14:19:25.169Z,17.88
2022-10-17T14:21:56.836Z,17.89
2022-10-17T14:24:23.167Z,17.92
2022-10-17T14:26:54.217Z,17.94
2022-10-17T14:29:24.193Z,17.97
2022-10-17T14:31:56.374Z,18.01
2022-10-17T14:34:27.631Z,18.06
2022-10-17T14:36:54.544Z,18.11
2022-10-17T14:39:23.416Z,18.17
2022-10-17T14:41:50.910Z,18.22
2022-10-17T14:44:37.603Z,18.29
2022-10-17T14:47:30.763Z,18.36
2022-10-17T14:50:01.797Z,18.43
2022-10-17T14:52:29.473Z,18.49
2022-10-17T14:54:56.550Z,18.52
2022-10-17T14:57:31.719Z,18.55
2022-10-17T14:59:58.511Z,18.60
2022-10-17T15:02:25.788Z,18.62
2022-10-17T15:04:52.699Z,18.68
2022-10-17T15:07:20.923Z,18.68
2022-10-17T15:09:48.772Z,18.71
2022-10-17T15:12:16.829Z,18.72
2022-10-17T15:14:44.003Z,18.70
2022-10-17T15:17:12.722Z,18.69
2022-10-17T15:19:40.036Z,18.69
2022-10-17T15:22:06.348Z,18.68
2022-10-17T15:24:32.683Z,18.65
2022-10-17T15:26:59.022Z,18.62
2022-10-17T15:29:25.660Z,18.58
2022-10-17T15:31:52.074Z,18.55
2022-10-17T15:34:18.368Z,18.52
2022-10-17T15:36:49.130Z,18.50
2022-10-17T15:39:15.453Z,18.49
2022-10-17T15:41:41.747Z,18.49
2022-10-17T15:44:08.036Z,18.44
2022-10-17T15:46:35.312Z,18.42
2022-10-17T15:49:03.883Z,18.40
2022-10-17T15:51:30.412Z,18.37
2022-10-17T15:54:01.492Z,18.36
2022-10-17T15:56:30.522Z,18.33
2022-10-17T15:58:57.162Z,18.31
2022-10-17T16:01:25.065Z,18.30
2022-10-17T16:03:51.649Z,18.28
2022-10-17T16:06:18.687Z,18.26
2022-10-17T16:08:46.054Z,18.24
2022-10-17T16:11:19.731Z,18.21
2022-10-17T16:13:50.107Z,18.19
2022-10-17T16:16:16.935Z,18.18
2022-10-17T16:18:43.266Z,18.16
2022-10-17T16:21:12.704Z,18.13
2022-10-17T16:23:39.069Z,18.10
2022-10-17T16:26:05.590Z,18.06
2022-10-17T16:28:31.966Z,18.02
2022-10-17T16:30:58.448Z,17.99
2022-10-17T16:33:24.867Z,17.95
2022-10-17T16:35:51.517Z,17.93
2022-10-17T16:38:17.843Z,17.89
2022-10-17T16:40:44.386Z,17.86
2022-10-17T16:43:12.046Z,17.86
2022-10-17T16:45:38.909Z,17.82
2022-10-17T16:48:05.735Z,17.79
2022-10-17T16:50:36.003Z,17.75
2022-10-17T16:53:03.850Z,17.67
2022-10-17T16:55:30.167Z,17.68
2022-10-17T16:57:56.876Z,17.65
2022-10-17T17:00:23.243Z,17.64
2022-10-17T17:02:49.731Z,17.62
2022-10-17T17:05:16.034Z,17.59
2022-10-17T17:07:42.493Z,17.55
2022-10-17T17:10:08.909Z,17.56
2022-10-17T17:12:35.511Z,17.54
2022-10-17T17:15:01.886Z,17.53
2022-10-17T17:17:49.528Z,17.53
2022-10-17T17:20:17.526Z,17.51
2022-10-17T17:22:43.835Z,17.47
2022-10-17T17:25:10.182Z,17.43
2022-10-17T17:27:36.469Z,17.47
2022-10-17T17:30:02.819Z,17.52
2022-10-17T17:32:29.154Z,17.53
2022-10-17T17:34:55.480Z,17.49
2022-10-17T17:37:21.789Z,17.50
2022-10-17T17:39:48.084Z,17.53
2022-10-17T17:42:14.390Z,17.54
2022-10-17T17:44:40.686Z,17.53
2022-10-17T17:47:07.035Z,17.55
2022-10-17T17:49:33.482Z,17.52
2022-10-17T17:51:59.943Z,17.52
2022-10-17T17:54:26.441Z,17.50
2022-10-17T17:56:52.867Z,17.53
2022-10-17T17:59:19.640Z,17.53
2022-10-17T18:01:46.030Z,17.54
2022-10-17T18:04:12.401Z,17.54
2022-10-17T18:06:39.262Z,17.50
2022-10-17T18:09:06.538Z,17.50
2022-10-17T18:11:32.925Z,17.51
2022-10-17T18:14:00.781Z,17.48
2022-10-17T18:16:28.980Z,17.48
2022-10-17T18:18:55.468Z,17.47
2022-10-17T18:21:21.829Z,17.42
2022-10-17T18:23:48.596Z,17.45
2022-10-17T18:26:15.362Z,17.47
2022-10-17T18:31:16.241Z,17.46
2022-10-17T18:33:45.342Z,17.44
2022-10-17T18:36:12.790Z,17.42
2022-10-17T18:38:39.090Z,17.42
2022-10-17T18:41:12.776Z,17.41
2022-10-17T18:43:40.477Z,17.39
2022-10-17T18:46:12.382Z,17.39
2022-10-17T18:48:42.193Z,17.38
2022-10-17T18:51:09.595Z,17.39
2022-10-17T18:53:38.817Z,17.38
2022-10-17T18:56:05.284Z,17.34
2022-10-17T18:58:31.611Z,17.33
2022-10-17T19:01:02.305Z,17.30
2022-10-17T19:03:28.593Z,17.30
2022-10-17T19:05:56.757Z,17.28
2022-10-17T19:08:25.714Z,17.24
2022-10-17T19:10:52.033Z,17.23
2022-10-17T19:13:21.502Z,17.22
2022-10-17T19:15:48.180Z,17.21
2022-10-17T19:18:14.589Z,17.19
2022-10-17T19:20:40.931Z,17.19
2022-10-17T19:23:07.263Z,17.19
2022-10-17T19:25:33.975Z,17.19
2022-10-17T19:28:00.446Z,17.20
2022-10-17T19:30:26.877Z,17.18
2022-10-17T19:32:53.410Z,17.12
2022-10-17T19:35:19.719Z,17.12
2022-10-17T19:37:46.036Z,17.13
2022-10-17T19:40:12.663Z,17.12
2022-10-17T19:42:39.240Z,17.12
2022-10-17T19:45:05.934Z,17.13
2022-10-17T19:47:32.405Z,17.12
2022-10-17T19:49:58.826Z,17.11
2022-10-17T19:52:25.137Z,17.09
2022-10-17T19:54:51.429Z,17.11
2022-10-17T19:57:18.127Z,17.11
2022-10-17T19:59:44.518Z,17.12
2022-10-17T20:02:12.294Z,17.12
2022-10-17T20:04:49.534Z,17.12
2022-10-17T20:07:24.984Z,17.12
2022-10-17T20:09:51.313Z,17.12
2022-10-17T20:12:17.616Z,17.13
2022-10-17T20:14:43.923Z,17.10
2022-10-17T20:17:10.271Z,17.10
2022-10-17T20:19:36.546Z,17.10
2022-10-17T20:22:02.904Z,17.08
2022-10-17T20:24:29.376Z,17.07
2022-10-17T20:26:56.246Z,17.05
2022-10-17T20:29:23.983Z,17.04
2022-10-17T20:31:50.346Z,17.05
2022-10-17T20:34:17.627Z,17.04
2022-10-17T20:36:44.070Z,17.02
2022-10-17T20:39:12.007Z,17.00
2022-10-17T20:41:38.522Z,17.00
2022-10-17T20:44:06.693Z,16.99
2022-10-17T20:46:37.645Z,16.98
2022-10-17T20:49:06.075Z,16.96
2022-10-17T20:51:32.949Z,16.94
2022-10-17T20:53:59.466Z,16.91
2022-10-17T20:56:27.116Z,16.90
2022-10-17T20:58:55.680Z,16.89
2022-10-17T21:01:22.477Z,16.87
2022-10-17T21:03:49.678Z,16.85
2022-10-17T21:06:16.638Z,16.85
2022-10-17T21:08:43.577Z,16.85
2022-10-17T21:11:23.881Z,16.85
2022-10-17T21:13:55.150Z,16.85
2022-10-17T21:16:21.901Z,16.85
2022-10-17T21:18:49.302Z,16.86
2022-10-17T21:21:20.323Z,16.85
2022-10-17T21:23:47.793Z,16.87
2022-10-17T21:26:14.802Z,16.88
2022-10-17T21:28:41.578Z,16.88
2022-10-17T21:31:12.728Z,16.88
2022-10-17T21:33:39.593Z,16.87
2022-10-17T21:36:06.332Z,16.89
2022-10-17T21:38:34.064Z,16.90
2022-10-17T21:41:00.371Z,16.90
2022-10-17T21:43:26.669Z,16.89
2022-10-17T21:45:52.987Z,16.89
2022-10-17T21:48:19.439Z,16.89
2022-10-17T21:50:45.792Z,16.88
2022-10-17T21:53:12.156Z,16.88
2022-10-17T21:55:38.517Z,16.86
2022-10-17T21:58:05.175Z,16.85
2022-10-17T22:00:31.523Z,16.81
2022-10-17T22:02:57.858Z,16.84
2022-10-17T22:05:24.190Z,16.84
2022-10-17T22:07:50.876Z,16.81
2022-10-17T22:10:17.196Z,16.78
2022-10-17T22:12:43.548Z,16.77
2022-10-17T22:15:09.973Z,16.76
2022-10-17T22:17:36.305Z,16.76
2022-10-17T22:20:02.729Z,16.75
2022-10-17T22:22:30.402Z,16.75
2022-10-17T22:24:56.996Z,16.78
2022-10-17T22:27:23.461Z,16.80
2022-10-17T22:29:49.961Z,16.83
2022-10-17T22:32:20.081Z,16.83
2022-10-17T22:34:48.959Z,16.84
2022-10-17T22:37:15.352Z,16.86
2022-10-17T22:39:41.666Z,16.88
2022-10-17T22:42:08.008Z,16.90
2022-10-17T22:44:34.300Z,16.90
2022-10-17T22:47:00.590Z,16.96
2022-10-17T22:49:27.378Z,16.98
2022-10-17T22:51:53.745Z,16.99
2022-10-17T22:54:20.481Z,17.00
2022-10-17T22:56:47.262Z,17.01
2022-10-17T22:59:13.910Z,17.02
2022-10-17T23:01:40.242Z,17.02
2022-10-17T23:04:07.111Z,17.03
2022-10-17T23:06:33.517Z,17.04
2022-10-17T23:09:01.069Z,17.04
2022-10-17T23:11:30.097Z,17.05
2022-10-17T23:13:57.633Z,17.04
2022-10-17T23:16:23.997Z,17.02
2022-10-17T23:18:52.888Z,17.03
2022-10-17T23:21:21.086Z,17.03
2022-10-17T23:23:49.101Z,17.03
2022-10-17T23:26:18.791Z,17.04
2022-10-17T23:28:45.943Z,17.05
2022-10-17T23:31:16.826Z,17.04
2022-10-17T23:33:44.993Z,17.06
2022-10-17T23:36:13.034Z,17.05
2022-10-17T23:38:41.650Z,17.06
2022-10-17T23:41:08.527Z,17.06
2022-10-17T23:43:34.992Z,17.06
2022-10-17T23:46:02.181Z,17.06
2022-10-17T23:48:29.288Z,17.04
2022-10-17T23:50:56.085Z,17.01
2022-10-17T23:53:23.441Z,16.99
2022-10-17T23:55:50.265Z,16.99
2022-10-17T23:58:17.494Z,16.98
